sensor_id;sensor_type;location;lat;lon;timestamp;pressure;altitude;pressure_sealevel;temperature;humidity
47530;BME280;33272;51.922;7.730;2023-01-31T00:01:09;143606.03;;;4.45;100.00
47530;BME280;33272;51.922;7.730;2023-01-31T00:03:37;143590.91;;;4.38;100.00
47530;BME280;33272;51.922;7.730;2023-01-31T00:06:17;143613.63;;;4.48;100.00
47530;BME280;33272;51.922;7.730;2023-01-31T00:08:47;143597.19;;;4.41;100.00
47530;BME280;33272;51.922;7.730;2023-01-31T00:11:16;143611.06;;;4.47;100.00
47530;BME280;33272;51.922;7.730;2023-01-31T00:13:45;143621.13;;;4.51;100.00
47530;BME280;33272;51.922;7.730;2023-01-31T00:16:13;143612.31;;;4.47;100.00
47530;BME280;33272;51.922;7.730;2023-01-31T00:18:40;143608.56;;;4.46;100.00
47530;BME280;33272;51.922;7.730;2023-01-31T00:21:09;143597.19;;;4.41;100.00
47530;BME280;33272;51.922;7.730;2023-01-31T00:23:38;143584.59;;;4.36;100.00
47530;BME280;33272;51.922;7.730;2023-01-31T00:26:16;143568.22;;;4.29;100.00
47530;BME280;33272;51.922;7.730;2023-01-31T00:28:45;143571.97;;;4.31;100.00
47530;BME280;33272;51.922;7.730;2023-01-31T00:31:14;143563.16;;;4.27;100.00
47530;BME280;33272;51.922;7.730;2023-01-31T00:33:43;143549.28;;;4.22;100.00
47530;BME280;33272;51.922;7.730;2023-01-31T00:36:14;143546.78;;;4.21;100.00
47530;BME280;33272;51.922;7.730;2023-01-31T00:38:41;143505.22;;;4.04;100.00
47530;BME280;33272;51.922;7.730;2023-01-31T00:41:10;143503.91;;;4.03;100.00
47530;BME280;33272;51.922;7.730;2023-01-31T00:43:38;143482.53;;;3.94;100.00
47530;BME280;33272;51.922;7.730;2023-01-31T00:46:06;143461.09;;;3.86;100.00
47530;BME280;33272;51.922;7.730;2023-01-31T00:48:33;143440.91;;;3.78;100.00
47530;BME280;33272;51.922;7.730;2023-01-31T00:51:00;143410.66;;;3.65;100.00
47530;BME280;33272;51.922;7.730;2023-01-31T00:53:27;143408.16;;;3.64;100.00
47530;BME280;33272;51.922;7.730;2023-01-31T00:56:00;143372.91;;;3.50;100.00
47530;BME280;33272;51.922;7.730;2023-01-31T00:58:28;143364.06;;;3.46;100.00
47530;BME280;33272;51.922;7.730;2023-01-31T01:01:05;143364.06;;;3.46;100.00
47530;BME280;33272;51.922;7.730;2023-01-31T01:03:33;143335.13;;;3.35;100.00
47530;BME280;33272;51.922;7.730;2023-01-31T01:06:00;143340.13;;;3.37;100.00
47530;BME280;33272;51.922;7.730;2023-01-31T01:08:28;143332.56;;;3.34;100.00
47530;BME280;33272;51.922;7.730;2023-01-31T01:10:55;143331.31;;;3.33;100.00
47530;BME280;33272;51.922;7.730;2023-01-31T01:13:22;143322.50;;;3.30;100.00
47530;BME280;33272;51.922;7.730;2023-01-31T01:15:49;143317.47;;;3.28;100.00
47530;BME280;33272;51.922;7.730;2023-01-31T01:18:17;143321.25;;;3.29;100.00
47530;BME280;33272;51.922;7.730;2023-01-31T01:20:44;143317.47;;;3.28;100.00
47530;BME280;33272;51.922;7.730;2023-01-31T01:23:11;143318.75;;;3.28;100.00
47530;BME280;33272;51.922;7.730;2023-01-31T01:25:42;143327.56;;;3.32;100.00
47530;BME280;33272;51.922;7.730;2023-01-31T01:28:10;143348.94;;;3.40;100.00
47530;BME280;33272;51.922;7.730;2023-01-31T01:30:37;143348.94;;;3.40;100.00
47530;BME280;33272;51.922;7.730;2023-01-31T01:33:04;143366.63;;;3.47;100.00
47530;BME280;33272;51.922;7.730;2023-01-31T01:35:32;143374.16;;;3.51;100.00
47530;BME280;33272;51.922;7.730;2023-01-31T01:37:59;143379.19;;;3.53;100.00
47530;BME280;33272;51.922;7.730;2023-01-31T01:40:34;143359.06;;;3.44;100.00
47530;BME280;33272;51.922;7.730;2023-01-31T01:43:02;143345.19;;;3.39;100.00
47530;BME280;33272;51.922;7.730;2023-01-31T01:45:29;143335.13;;;3.35;100.00
47530;BME280;33272;51.922;7.730;2023-01-31T01:47:59;143314.97;;;3.27;100.00
47530;BME280;33272;51.922;7.730;2023-01-31T01:50:33;143280.97;;;3.13;100.00
47530;BME280;33272;51.922;7.730;2023-01-31T01:53:08;143262.06;;;3.05;100.00
47530;BME280;33272;51.922;7.730;2023-01-31T01:55:39;143253.25;;;3.01;100.00
47530;BME280;33272;51.922;7.730;2023-01-31T01:58:13;143255.75;;;3.02;100.00
47530;BME280;33272;51.922;7.730;2023-01-31T02:00:42;143226.84;;;2.91;100.00
47530;BME280;33272;51.922;7.730;2023-01-31T02:03:11;143209.19;;;2.84;100.00
47530;BME280;33272;51.922;7.730;2023-01-31T02:05:42;143216.72;;;2.87;100.00
47530;BME280;33272;51.922;7.730;2023-01-31T02:08:10;143206.66;;;2.83;100.00
47530;BME280;33272;51.922;7.730;2023-01-31T02:10:43;143207.94;;;2.83;100.00
47530;BME280;33272;51.922;7.730;2023-01-31T02:13:13;143199.13;;;2.79;100.00
47530;BME280;33272;51.922;7.730;2023-01-31T02:15:41;143190.31;;;2.76;100.00
47530;BME280;33272;51.922;7.730;2023-01-31T02:18:08;143180.25;;;2.72;100.00
47530;BME280;33272;51.922;7.730;2023-01-31T02:28:18;143162.59;;;2.65;100.00
47530;BME280;33272;51.922;7.730;2023-01-31T02:34:17;143187.81;;;2.75;100.00
47530;BME280;33272;51.922;7.730;2023-01-31T02:36:57;143173.97;;;2.69;100.00
47530;BME280;33272;51.922;7.730;2023-01-31T02:39:38;143168.91;;;2.67;100.00
47530;BME280;33272;51.922;7.730;2023-01-31T02:42:14;143176.47;;;2.70;100.00
47530;BME280;33272;51.922;7.730;2023-01-31T02:44:57;143202.91;;;2.81;100.00
47530;BME280;33272;51.922;7.730;2023-01-31T02:47:48;143212.97;;;2.85;100.00
47530;BME280;33272;51.922;7.730;2023-01-31T02:50:25;143210.47;;;2.84;100.00
47530;BME280;33272;51.922;7.730;2023-01-31T02:52:58;143229.34;;;2.92;100.00
47530;BME280;33272;51.922;7.730;2023-01-31T02:55:31;143235.63;;;2.94;100.00
47530;BME280;33272;51.922;7.730;2023-01-31T02:58:19;143241.94;;;2.97;100.00
47530;BME280;33272;51.922;7.730;2023-01-31T03:00:47;143252.00;;;3.01;100.00
47530;BME280;33272;51.922;7.730;2023-01-31T03:03:20;143252.00;;;3.01;100.00
47530;BME280;33272;51.922;7.730;2023-01-31T03:06:42;143245.69;;;2.98;100.00
47530;BME280;33272;51.922;7.730;2023-01-31T03:09:23;143255.75;;;3.02;100.00
47530;BME280;33272;51.922;7.730;2023-01-31T03:12:31;143262.06;;;3.05;100.00
47530;BME280;33272;51.922;7.730;2023-01-31T03:15:23;143279.72;;;3.12;100.00
47530;BME280;33272;51.922;7.730;2023-01-31T03:18:16;143288.53;;;3.16;100.00
47530;BME280;33272;51.922;7.730;2023-01-31T03:20:51;143275.91;;;3.11;100.00
47530;BME280;33272;51.922;7.730;2023-01-31T03:23:23;143279.72;;;3.12;100.00
47530;BME280;33272;51.922;7.730;2023-01-31T03:25:56;143284.72;;;3.14;100.00
47530;BME280;33272;51.922;7.730;2023-01-31T03:28:27;143285.97;;;3.15;100.00
47530;BME280;33272;51.922;7.730;2023-01-31T03:31:02;143296.09;;;3.19;100.00
47530;BME280;33272;51.922;7.730;2023-01-31T03:33:33;143307.41;;;3.23;100.00
47530;BME280;33272;51.922;7.730;2023-01-31T03:36:09;143302.34;;;3.21;100.00
47530;BME280;33272;51.922;7.730;2023-01-31T03:38:48;143279.72;;;3.12;100.00
47530;BME280;33272;51.922;7.730;2023-01-31T03:41:24;143283.47;;;3.14;100.00
47530;BME280;33272;51.922;7.730;2023-01-31T03:43:59;143285.97;;;3.15;100.00
47530;BME280;33272;51.922;7.730;2023-01-31T03:46:31;143293.53;;;3.18;100.00
47530;BME280;33272;51.922;7.730;2023-01-31T03:49:01;143274.66;;;3.10;100.00
47530;BME280;33272;51.922;7.730;2023-01-31T03:51:36;143284.72;;;3.14;100.00
47530;BME280;33272;51.922;7.730;2023-01-31T03:54:08;143299.84;;;3.20;100.00
47530;BME280;33272;51.922;7.730;2023-01-31T03:56:40;143312.44;;;3.25;100.00
47530;BME280;33272;51.922;7.730;2023-01-31T03:59:12;143308.66;;;3.24;100.00
47530;BME280;33272;51.922;7.730;2023-01-31T04:01:44;143322.50;;;3.30;100.00
47530;BME280;33272;51.922;7.730;2023-01-31T04:04:18;143325.03;;;3.31;100.00
47530;BME280;33272;51.922;7.730;2023-01-31T04:06:47;143325.03;;;3.31;100.00
47530;BME280;33272;51.922;7.730;2023-01-31T04:09:15;143337.63;;;3.36;100.00
47530;BME280;33272;51.922;7.730;2023-01-31T04:11:47;143328.81;;;3.32;100.00
47530;BME280;33272;51.922;7.730;2023-01-31T04:14:15;143320.00;;;3.29;100.00
47530;BME280;33272;51.922;7.730;2023-01-31T04:16:43;143318.75;;;3.28;100.00
47530;BME280;33272;51.922;7.730;2023-01-31T04:19:10;143325.03;;;3.31;100.00
47530;BME280;33272;51.922;7.730;2023-01-31T04:21:37;143335.13;;;3.35;100.00
47530;BME280;33272;51.922;7.730;2023-01-31T04:24:04;143323.75;;;3.30;100.00
47530;BME280;33272;51.922;7.730;2023-01-31T04:26:36;143347.69;;;3.40;100.00
47530;BME280;33272;51.922;7.730;2023-01-31T04:29:03;143361.56;;;3.45;100.00
47530;BME280;33272;51.922;7.730;2023-01-31T04:31:30;143366.63;;;3.47;100.00
47530;BME280;33272;51.922;7.730;2023-01-31T04:33:57;143388.00;;;3.56;100.00
47530;BME280;33272;51.922;7.730;2023-01-31T04:36:25;143382.97;;;3.54;100.00
47530;BME280;33272;51.922;7.730;2023-01-31T04:38:52;143394.28;;;3.59;100.00
47530;BME280;33272;51.922;7.730;2023-01-31T04:41:19;143413.22;;;3.66;100.00
47530;BME280;33272;51.922;7.730;2023-01-31T04:43:47;143422.03;;;3.70;100.00
47530;BME280;33272;51.922;7.730;2023-01-31T04:46:14;143439.66;;;3.77;100.00
47530;BME280;33272;51.922;7.730;2023-01-31T04:48:41;143457.28;;;3.84;100.00
47530;BME280;33272;51.922;7.730;2023-01-31T04:51:08;143463.59;;;3.87;100.00
47530;BME280;33272;51.922;7.730;2023-01-31T04:53:35;143463.59;;;3.87;100.00
47530;BME280;33272;51.922;7.730;2023-01-31T04:56:03;143479.97;;;3.93;100.00
47530;BME280;33272;51.922;7.730;2023-01-31T04:58:31;143485.03;;;3.95;100.00
47530;BME280;33272;51.922;7.730;2023-01-31T05:00:59;143482.53;;;3.94;100.00
47530;BME280;33272;51.922;7.730;2023-01-31T05:03:26;143482.53;;;3.94;100.00
47530;BME280;33272;51.922;7.730;2023-01-31T05:05:53;143501.41;;;4.02;100.00
47530;BME280;33272;51.922;7.730;2023-01-31T05:08:20;143505.22;;;4.04;100.00
47530;BME280;33272;51.922;7.730;2023-01-31T05:10:47;143503.91;;;4.03;100.00
47530;BME280;33272;51.922;7.730;2023-01-31T05:13:14;143511.47;;;4.06;100.00
47530;BME280;33272;51.922;7.730;2023-01-31T05:15:41;143506.47;;;4.04;100.00
47530;BME280;33272;51.922;7.730;2023-01-31T05:18:10;143490.09;;;3.98;100.00
47530;BME280;33272;51.922;7.730;2023-01-31T05:20:37;143486.28;;;3.96;100.00
47530;BME280;33272;51.922;7.730;2023-01-31T05:23:05;143471.16;;;3.90;100.00
47530;BME280;33272;51.922;7.730;2023-01-31T05:25:34;143469.91;;;3.89;100.00
47530;BME280;33272;51.922;7.730;2023-01-31T05:28:02;143468.66;;;3.89;100.00
47530;BME280;33272;51.922;7.730;2023-01-31T05:30:29;143467.41;;;3.88;100.00
47530;BME280;33272;51.922;7.730;2023-01-31T05:32:56;143442.16;;;3.78;100.00
47530;BME280;33272;51.922;7.730;2023-01-31T05:35:25;143435.91;;;3.76;100.00
47530;BME280;33272;51.922;7.730;2023-01-31T05:37:52;143445.97;;;3.80;100.00
47530;BME280;33272;51.922;7.730;2023-01-31T05:40:20;143456.03;;;3.84;100.00
47530;BME280;33272;51.922;7.730;2023-01-31T05:42:53;143463.59;;;3.87;100.00
47530;BME280;33272;51.922;7.730;2023-01-31T05:45:21;143466.16;;;3.88;100.00
47530;BME280;33272;51.922;7.730;2023-01-31T05:47:48;143463.59;;;3.87;100.00
47530;BME280;33272;51.922;7.730;2023-01-31T05:50:16;143476.22;;;3.92;100.00
47530;BME280;33272;51.922;7.730;2023-01-31T05:52:51;143466.16;;;3.88;100.00
47530;BME280;33272;51.922;7.730;2023-01-31T05:55:18;143467.41;;;3.88;100.00
47530;BME280;33272;51.922;7.730;2023-01-31T05:57:46;143476.22;;;3.92;100.00
47530;BME280;33272;51.922;7.730;2023-01-31T06:00:14;143497.66;;;4.01;100.00
47530;BME280;33272;51.922;7.730;2023-01-31T06:02:41;143508.97;;;4.05;100.00
47530;BME280;33272;51.922;7.730;2023-01-31T06:05:09;143515.28;;;4.08;100.00
47530;BME280;33272;51.922;7.730;2023-01-31T06:07:37;143530.41;;;4.14;100.00
47530;BME280;33272;51.922;7.730;2023-01-31T06:10:08;143534.16;;;4.15;100.00
47530;BME280;33272;51.922;7.730;2023-01-31T06:12:36;143537.97;;;4.17;100.00
47530;BME280;33272;51.922;7.730;2023-01-31T06:15:04;143549.28;;;4.22;100.00
47530;BME280;33272;51.922;7.730;2023-01-31T06:17:31;143551.84;;;4.23;100.00
47530;BME280;33272;51.922;7.730;2023-01-31T06:19:58;143551.84;;;4.23;100.00
47530;BME280;33272;51.922;7.730;2023-01-31T06:22:25;143568.22;;;4.29;100.00
47530;BME280;33272;51.922;7.730;2023-01-31T06:24:52;143580.81;;;4.34;100.00
47530;BME280;33272;51.922;7.730;2023-01-31T06:27:21;143589.63;;;4.38;100.00
47530;BME280;33272;51.922;7.730;2023-01-31T06:29:48;143574.50;;;4.32;100.00
47530;BME280;33272;51.922;7.730;2023-01-31T06:32:15;143593.44;;;4.39;100.00
47530;BME280;33272;51.922;7.730;2023-01-31T06:34:42;143611.06;;;4.47;100.00
47530;BME280;33272;51.922;7.730;2023-01-31T06:37:09;143606.03;;;4.45;100.00
47530;BME280;33272;51.922;7.730;2023-01-31T06:39:36;143631.25;;;4.55;100.00
47530;BME280;33272;51.922;7.730;2023-01-31T06:42:03;143646.38;;;4.61;100.00
47530;BME280;33272;51.922;7.730;2023-01-31T06:44:32;143662.78;;;4.68;100.00
47530;BME280;33272;51.922;7.730;2023-01-31T06:46:59;143640.06;;;4.58;100.00
47530;BME280;33272;51.922;7.730;2023-01-31T06:49:26;143647.63;;;4.61;100.00
47530;BME280;33272;51.922;7.730;2023-01-31T06:51:53;143652.69;;;4.63;100.00
47530;BME280;33272;51.922;7.730;2023-01-31T06:54:20;143651.41;;;4.63;100.00
47530;BME280;33272;51.922;7.730;2023-01-31T06:56:47;143653.94;;;4.64;100.00
47530;BME280;33272;51.922;7.730;2023-01-31T06:59:14;143650.16;;;4.62;100.00
47530;BME280;33272;51.922;7.730;2023-01-31T07:01:43;143670.34;;;4.71;100.00
47530;BME280;33272;51.922;7.730;2023-01-31T07:04:10;143655.19;;;4.64;100.00
47530;BME280;33272;51.922;7.730;2023-01-31T07:06:37;143670.34;;;4.71;100.00
47530;BME280;33272;51.922;7.730;2023-01-31T07:09:04;143685.47;;;4.77;100.00
47530;BME280;33272;51.922;7.730;2023-01-31T07:11:32;143691.78;;;4.79;100.00
47530;BME280;33272;51.922;7.730;2023-01-31T07:13:59;143682.91;;;4.76;100.00
47530;BME280;33272;51.922;7.730;2023-01-31T07:16:26;143698.06;;;4.82;100.00
47530;BME280;33272;51.922;7.730;2023-01-31T07:18:54;143672.84;;;4.72;100.00
47530;BME280;33272;51.922;7.730;2023-01-31T07:21:23;143694.28;;;4.80;100.00
47530;BME280;33272;51.922;7.730;2023-01-31T07:23:51;143704.38;;;4.84;100.00
47530;BME280;33272;51.922;7.730;2023-01-31T07:26:19;143715.75;;;4.89;100.00
47530;BME280;33272;51.922;7.730;2023-01-31T07:28:46;143710.69;;;4.87;100.00
47530;BME280;33272;51.922;7.730;2023-01-31T07:31:13;143718.25;;;4.90;100.00
47530;BME280;33272;51.922;7.730;2023-01-31T07:33:40;143703.13;;;4.84;100.00
47530;BME280;33272;51.922;7.730;2023-01-31T07:36:13;143704.38;;;4.84;100.00
47530;BME280;33272;51.922;7.730;2023-01-31T07:38:41;143714.44;;;4.88;100.00
47530;BME280;33272;51.922;7.730;2023-01-31T07:41:10;143717.00;;;4.90;100.00
47530;BME280;33272;51.922;7.730;2023-01-31T07:43:37;143737.16;;;4.98;100.00
47530;BME280;33272;51.922;7.730;2023-01-31T07:46:06;143752.28;;;5.04;100.00
47530;BME280;33272;51.922;7.730;2023-01-31T07:48:36;143783.81;;;5.17;100.00
47530;BME280;33272;51.922;7.730;2023-01-31T07:51:03;143737.16;;;4.98;100.00
47530;BME280;33272;51.922;7.730;2023-01-31T07:53:34;143735.91;;;4.97;100.00
47530;BME280;33272;51.922;7.730;2023-01-31T07:56:09;143718.25;;;4.90;100.00
47530;BME280;33272;51.922;7.730;2023-01-31T07:58:37;143773.75;;;5.13;100.00
47530;BME280;33272;51.922;7.730;2023-01-31T08:01:05;143772.50;;;5.12;100.00
47530;BME280;33272;51.922;7.730;2023-01-31T08:03:58;143758.59;;;5.06;100.00
47530;BME280;33272;51.922;7.730;2023-01-31T08:06:27;143771.25;;;5.11;100.00
47530;BME280;33272;51.922;7.730;2023-01-31T08:08:57;143756.09;;;5.05;100.00
47530;BME280;33272;51.922;7.730;2023-01-31T08:11:24;143740.97;;;4.99;100.00
47530;BME280;33272;51.922;7.730;2023-01-31T08:13:52;143769.97;;;5.11;100.00
47530;BME280;33272;51.922;7.730;2023-01-31T08:16:19;143798.97;;;5.23;100.00
47530;BME280;33272;51.922;7.730;2023-01-31T08:18:47;143757.34;;;5.06;100.00
47530;BME280;33272;51.922;7.730;2023-01-31T08:21:15;143759.84;;;5.07;100.00
47530;BME280;33272;51.922;7.730;2023-01-31T08:23:42;143762.41;;;5.08;100.00
47530;BME280;33272;51.922;7.730;2023-01-31T08:26:14;143732.13;;;4.96;100.00
47530;BME280;33272;51.922;7.730;2023-01-31T08:28:42;143752.28;;;5.04;100.00
47530;BME280;33272;51.922;7.730;2023-01-31T08:31:12;143739.72;;;4.99;100.00
47530;BME280;33272;51.922;7.730;2023-01-31T08:33:40;143742.22;;;5.00;100.00
47530;BME280;33272;51.922;7.730;2023-01-31T08:36:09;143742.22;;;5.00;100.00
47530;BME280;33272;51.922;7.730;2023-01-31T08:38:37;143723.31;;;4.92;100.00
47530;BME280;33272;51.922;7.730;2023-01-31T08:41:04;143700.59;;;4.83;100.00
47530;BME280;33272;51.922;7.730;2023-01-31T08:43:32;143717.00;;;4.90;100.00
47530;BME280;33272;51.922;7.730;2023-01-31T08:45:59;143711.94;;;4.87;100.00
47530;BME280;33272;51.922;7.730;2023-01-31T08:48:26;143742.22;;;5.00;100.00
47530;BME280;33272;51.922;7.730;2023-01-31T08:50:53;143749.78;;;5.03;100.00
47530;BME280;33272;51.922;7.730;2023-01-31T08:53:20;143761.13;;;5.07;100.00
47530;BME280;33272;51.922;7.730;2023-01-31T08:55:47;143777.56;;;5.14;100.00
47530;BME280;33272;51.922;7.730;2023-01-31T08:58:14;143782.56;;;5.16;100.00
47530;BME280;33272;51.922;7.730;2023-01-31T09:00:43;143807.78;;;5.26;100.00
47530;BME280;33272;51.922;7.730;2023-01-31T09:03:14;143787.63;;;5.18;100.00
47530;BME280;33272;51.922;7.730;2023-01-31T09:05:42;143802.78;;;5.24;100.00
47530;BME280;33272;51.922;7.730;2023-01-31T09:08:09;143820.41;;;5.31;100.00
47530;BME280;33272;51.922;7.730;2023-01-31T09:10:37;143828.00;;;5.34;100.00
47530;BME280;33272;51.922;7.730;2023-01-31T09:13:04;143815.34;;;5.29;100.00
47530;BME280;33272;51.922;7.730;2023-01-31T09:15:31;143811.59;;;5.28;100.00
47530;BME280;33272;51.922;7.730;2023-01-31T09:17:59;143848.19;;;5.43;100.00
47530;BME280;33272;51.922;7.730;2023-01-31T09:20:26;143795.19;;;5.21;100.00
47530;BME280;33272;51.922;7.730;2023-01-31T09:22:53;143828.00;;;5.34;100.00
47530;BME280;33272;51.922;7.730;2023-01-31T09:25:20;143820.41;;;5.31;100.00
47530;BME280;33272;51.922;7.730;2023-01-31T09:27:47;143850.72;;;5.44;100.00
47530;BME280;33272;51.922;7.730;2023-01-31T09:30:15;143864.59;;;5.49;100.00
47530;BME280;33272;51.922;7.730;2023-01-31T09:32:42;143849.47;;;5.43;100.00
47530;BME280;33272;51.922;7.730;2023-01-31T09:35:12;143897.41;;;5.63;100.00
47530;BME280;33272;51.922;7.730;2023-01-31T09:37:39;143881.00;;;5.56;100.00
47530;BME280;33272;51.922;7.730;2023-01-31T09:40:09;143902.47;;;5.65;100.00
47530;BME280;33272;51.922;7.730;2023-01-31T09:42:45;143862.03;;;5.48;100.00
47530;BME280;33272;51.922;7.730;2023-01-31T09:45:21;143879.75;;;5.55;100.00
47530;BME280;33272;51.922;7.730;2023-01-31T09:47:52;143869.63;;;5.51;100.00
47530;BME280;33272;51.922;7.730;2023-01-31T09:50:29;143841.88;;;5.40;100.00
47530;BME280;33272;51.922;7.730;2023-01-31T09:52:57;143891.09;;;5.60;100.00
47530;BME280;33272;51.922;7.730;2023-01-31T09:55:31;143875.94;;;5.54;100.00
47530;BME280;33272;51.922;7.730;2023-01-31T09:58:08;143859.53;;;5.47;100.00
47530;BME280;33272;51.922;7.730;2023-01-31T10:00:48;143869.63;;;5.51;100.00
47530;BME280;33272;51.922;7.730;2023-01-31T10:03:35;143872.16;;;5.52;100.00
47530;BME280;33272;51.922;7.730;2023-01-31T10:06:13;143883.50;;;5.57;100.00
47530;BME280;33272;51.922;7.730;2023-01-31T10:08:50;143931.47;;;5.76;100.00
47530;BME280;33272;51.922;7.730;2023-01-31T10:11:29;143916.31;;;5.70;100.00
47530;BME280;33272;51.922;7.730;2023-01-31T10:14:04;143925.19;;;5.74;100.00
47530;BME280;33272;51.922;7.730;2023-01-31T10:16:42;143913.81;;;5.69;100.00
47530;BME280;33272;51.922;7.730;2023-01-31T10:19:15;143893.59;;;5.61;100.00
47530;BME280;33272;51.922;7.730;2023-01-31T10:21:48;143937.78;;;5.79;100.00
47530;BME280;33272;51.922;7.730;2023-01-31T10:24:22;143891.09;;;5.60;100.00
47530;BME280;33272;51.922;7.730;2023-01-31T10:26:52;143934.00;;;5.77;100.00
47530;BME280;33272;51.922;7.730;2023-01-31T10:29:27;143927.69;;;5.75;100.00
47530;BME280;33272;51.922;7.730;2023-01-31T10:31:59;143964.31;;;5.90;100.00
47530;BME280;33272;51.922;7.730;2023-01-31T10:34:31;143952.94;;;5.85;100.00
47530;BME280;33272;51.922;7.730;2023-01-31T10:37:09;143934.00;;;5.77;100.00
47530;BME280;33272;51.922;7.730;2023-01-31T10:39:43;143975.69;;;5.94;100.00
47530;BME280;33272;51.922;7.730;2023-01-31T10:42:19;143968.06;;;5.91;100.00
47530;BME280;33272;51.922;7.730;2023-01-31T10:44:52;143947.88;;;5.83;100.00
47530;BME280;33272;51.922;7.730;2023-01-31T10:47:31;143984.53;;;5.98;100.00
47530;BME280;33272;51.922;7.730;2023-01-31T10:49:58;143964.31;;;5.90;100.00
47530;BME280;33272;51.922;7.730;2023-01-31T10:52:44;143961.75;;;5.89;100.00
47530;BME280;33272;51.922;7.730;2023-01-31T10:55:36;143966.81;;;5.91;100.00
47530;BME280;33272;51.922;7.730;2023-01-31T10:58:11;143975.69;;;5.94;100.00
47530;BME280;33272;51.922;7.730;2023-01-31T11:00:39;143921.38;;;5.72;100.00
47530;BME280;33272;51.922;7.730;2023-01-31T11:03:08;143949.16;;;5.84;100.00
47530;BME280;33272;51.922;7.730;2023-01-31T11:05:38;143906.22;;;5.66;100.00
47530;BME280;33272;51.922;7.730;2023-01-31T11:08:24;143891.09;;;5.60;100.00
47530;BME280;33272;51.922;7.730;2023-01-31T11:10:55;143947.88;;;5.83;100.00
47530;BME280;33272;51.922;7.730;2023-01-31T11:13:23;143964.31;;;5.90;100.00
47530;BME280;33272;51.922;7.730;2023-01-31T11:15:52;143940.28;;;5.80;100.00
47530;BME280;33272;51.922;7.730;2023-01-31T11:18:29;143961.75;;;5.89;100.00
47530;BME280;33272;51.922;7.730;2023-01-31T11:20:58;143947.88;;;5.83;100.00
47530;BME280;33272;51.922;7.730;2023-01-31T11:23:31;143959.25;;;5.88;100.00
47530;BME280;33272;51.922;7.730;2023-01-31T11:25:59;143971.94;;;5.93;100.00
47530;BME280;33272;51.922;7.730;2023-01-31T11:28:34;143955.44;;;5.86;100.00
47530;BME280;33272;51.922;7.730;2023-01-31T11:31:04;143969.34;;;5.92;100.00
47530;BME280;33272;51.922;7.730;2023-01-31T11:33:43;143937.78;;;5.79;100.00
47530;BME280;33272;51.922;7.730;2023-01-31T11:36:13;143966.81;;;5.91;100.00
47530;BME280;33272;51.922;7.730;2023-01-31T11:38:42;143992.13;;;6.01;100.00
47530;BME280;33272;51.922;7.730;2023-01-31T11:41:31;143934.00;;;5.77;100.00
47530;BME280;33272;51.922;7.730;2023-01-31T11:44:12;143995.94;;;6.02;100.00
47530;BME280;33272;51.922;7.730;2023-01-31T11:46:50;143997.19;;;6.03;100.00
47530;BME280;33272;51.922;7.730;2023-01-31T11:49:29;143978.22;;;5.95;100.00
47530;BME280;33272;51.922;7.730;2023-01-31T11:51:58;143987.03;;;5.99;100.00
47530;BME280;33272;51.922;7.730;2023-01-31T11:54:30;144004.75;;;6.06;100.00
47530;BME280;33272;51.922;7.730;2023-01-31T11:56:58;143975.69;;;5.94;100.00
47530;BME280;33272;51.922;7.730;2023-01-31T11:59:29;143995.94;;;6.02;100.00
47530;BME280;33272;51.922;7.730;2023-01-31T12:01:58;144009.78;;;6.08;100.00
47530;BME280;33272;51.922;7.730;2023-01-31T12:04:31;144026.22;;;6.15;100.00
47530;BME280;33272;51.922;7.730;2023-01-31T12:07:03;144038.81;;;6.20;100.00
47530;BME280;33272;51.922;7.730;2023-01-31T12:09:41;144018.66;;;6.12;100.00
47530;BME280;33272;51.922;7.730;2023-01-31T12:12:27;144064.06;;;6.30;100.00
47530;BME280;33272;51.922;7.730;2023-01-31T12:14:59;144075.47;;;6.35;100.00
47530;BME280;33272;51.922;7.730;2023-01-31T12:17:30;144099.44;;;6.44;100.00
47530;BME280;33272;51.922;7.730;2023-01-31T12:20:29;144062.81;;;6.30;100.00
47530;BME280;33272;51.922;7.730;2023-01-31T12:23:09;144088.06;;;6.40;100.00
47530;BME280;33272;51.922;7.730;2023-01-31T12:25:56;144098.19;;;6.44;100.00
47530;BME280;33272;51.922;7.730;2023-01-31T12:28:36;144133.53;;;6.58;100.00
47530;BME280;33272;51.922;7.730;2023-01-31T12:31:23;144085.53;;;6.39;100.00
47530;BME280;33272;51.922;7.730;2023-01-31T12:34:10;144108.28;;;6.48;100.00
47530;BME280;33272;51.922;7.730;2023-01-31T12:37:06;144112.09;;;6.49;100.00
47530;BME280;33272;51.922;7.730;2023-01-31T12:39:51;144083.03;;;6.38;100.00
47530;BME280;33272;51.922;7.730;2023-01-31T12:42:51;144075.47;;;6.35;100.00
47530;BME280;33272;51.922;7.730;2023-01-31T12:45:44;144105.78;;;6.47;100.00
47530;BME280;33272;51.922;7.730;2023-01-31T12:48:58;144041.34;;;6.21;100.00
47530;BME280;33272;51.922;7.730;2023-01-31T12:51:41;144072.94;;;6.34;100.00
47530;BME280;33272;51.922;7.730;2023-01-31T12:54:23;144069.13;;;6.32;100.00
47530;BME280;33272;51.922;7.730;2023-01-31T12:57:11;144051.47;;;6.25;100.00
47530;BME280;33272;51.922;7.730;2023-01-31T12:59:49;144017.34;;;6.11;100.00
47530;BME280;33272;51.922;7.730;2023-01-31T13:02:38;144046.41;;;6.23;100.00
47530;BME280;33272;51.922;7.730;2023-01-31T13:05:23;144057.78;;;6.28;100.00
47530;BME280;33272;51.922;7.730;2023-01-31T13:07:56;144026.22;;;6.15;100.00
47530;BME280;33272;51.922;7.730;2023-01-31T13:10:35;144021.16;;;6.13;100.00
47530;BME280;33272;51.922;7.730;2023-01-31T13:13:10;144036.31;;;6.19;100.00
47530;BME280;33272;51.922;7.730;2023-01-31T13:15:47;144080.47;;;6.37;100.00
47530;BME280;33272;51.922;7.730;2023-01-31T13:18:17;144050.22;;;6.24;100.00
47530;BME280;33272;51.922;7.730;2023-01-31T13:20:50;144056.50;;;6.27;100.00
47530;BME280;33272;51.922;7.730;2023-01-31T13:23:25;144042.63;;;6.21;100.00
47530;BME280;33272;51.922;7.730;2023-01-31T13:26:04;144035.06;;;6.18;100.00